createdAt,value
2018-11-14T00:02:25.919Z,99234.00
2018-11-14T00:06:28.366Z,99239.00
2018-11-14T00:10:30.831Z,99227.00
2018-11-14T00:14:33.192Z,99222.00
2018-11-14T00:18:35.506Z,99233.00
2018-11-14T00:22:38.239Z,99233.00
2018-11-14T00:26:40.562Z,99238.00
2018-11-14T00:30:42.941Z,99235.00
2018-11-14T00:34:45.396Z,99239.00
2018-11-14T00:38:47.641Z,99243.00
2018-11-14T00:42:50.371Z,99252.00
2018-11-14T00:46:52.718Z,99255.00
2018-11-14T00:50:55.334Z,99261.00
2018-11-14T00:54:57.686Z,99261.00
2018-11-14T00:58:59.997Z,99261.00
2018-11-14T01:03:02.361Z,99263.00
2018-11-14T01:07:04.789Z,99258.00
2018-11-14T01:11:07.184Z,99254.00
2018-11-14T01:15:11.853Z,99264.00
2018-11-14T01:19:14.260Z,99255.00
2018-11-14T01:23:16.603Z,99251.00
2018-11-14T01:27:18.951Z,99255.00
2018-11-14T01:31:22.280Z,99248.00
2018-11-14T01:35:24.900Z,99251.00
2018-11-14T01:39:27.250Z,99249.00
2018-11-14T01:43:30.538Z,99244.00
2018-11-14T01:47:33.336Z,99237.00
2018-11-14T01:51:35.711Z,99232.00
2018-11-14T01:55:38.026Z,99230.00
2018-11-14T01:59:40.345Z,99235.00
2018-11-14T02:03:42.728Z,99221.00
2018-11-14T02:07:45.092Z,99222.00
2018-11-14T02:11:48.690Z,99230.00
2018-11-14T02:15:51.118Z,99217.00
2018-11-14T02:19:53.505Z,99209.00
2018-11-14T02:23:56.107Z,99214.00
2018-11-14T02:27:58.480Z,99216.00
2018-11-14T02:32:00.938Z,99219.00
2018-11-14T02:36:03.355Z,99218.00
2018-11-14T02:40:08.128Z,99210.00
2018-11-14T02:44:10.510Z,99218.00
2018-11-14T02:48:12.920Z,99209.00
2018-11-14T02:52:15.493Z,99210.00
2018-11-14T02:56:17.838Z,99215.00
2018-11-14T03:00:21.145Z,99219.00
2018-11-14T03:04:23.457Z,99215.00
2018-11-14T03:08:25.833Z,99205.00
2018-11-14T03:12:29.421Z,99209.00
2018-11-14T03:16:32.385Z,99205.00
2018-11-14T03:20:34.877Z,99201.00
2018-11-14T03:24:37.289Z,99203.00
2018-11-14T03:28:39.664Z,99208.00
2018-11-14T03:32:42.842Z,99211.00
2018-11-14T03:36:45.218Z,99204.00
2018-11-14T03:40:47.711Z,99207.00
2018-11-14T03:44:50.741Z,99197.00
2018-11-14T03:48:53.158Z,99199.00
2018-11-14T03:52:55.519Z,99194.00
2018-11-14T03:56:57.895Z,99197.00
2018-11-14T04:01:00.463Z,99197.00
2018-11-14T04:05:02.996Z,99194.00
2018-11-14T04:09:08.588Z,99196.00
2018-11-14T04:13:10.897Z,99187.00
2018-11-14T04:17:13.266Z,99184.00
2018-11-14T04:21:15.589Z,99182.00
2018-11-14T04:25:19.093Z,99176.00
2018-11-14T04:29:21.564Z,99176.00
2018-11-14T04:33:23.921Z,99181.00
2018-11-14T04:37:26.233Z,99175.00
2018-11-14T04:41:28.583Z,99179.00
2018-11-14T04:45:30.923Z,99167.00
2018-11-14T04:49:33.324Z,99164.00
2018-11-14T04:53:35.665Z,99185.00
2018-11-14T04:57:38.392Z,99177.00
2018-11-14T05:01:40.782Z,99170.00
2018-11-14T05:05:43.104Z,99157.00
2018-11-14T05:09:45.437Z,99163.00
2018-11-14T05:13:47.709Z,99152.00
2018-11-14T05:17:50.698Z,99149.00
2018-11-14T05:21:53.017Z,99145.00
2018-11-14T05:25:55.352Z,99144.00
2018-11-14T05:29:57.710Z,99142.00
2018-11-14T05:34:00.124Z,99138.00
2018-11-14T05:38:02.499Z,99135.00
2018-11-14T05:42:04.906Z,99137.00
2018-11-14T05:46:07.273Z,99135.00
2018-11-14T05:50:11.942Z,99134.00
2018-11-14T05:54:14.327Z,99139.00
2018-11-14T05:58:16.658Z,99150.00
2018-11-14T06:02:18.997Z,99144.00
2018-11-14T06:06:21.353Z,99144.00
2018-11-14T06:10:23.763Z,99144.00
2018-11-14T06:14:26.083Z,99148.00
2018-11-14T06:18:28.500Z,99152.00
2018-11-14T06:22:30.862Z,99145.00
2018-11-14T06:26:33.238Z,99147.00
2018-11-14T06:30:36.264Z,99154.00
2018-11-14T06:34:39.348Z,99161.00
2018-11-14T06:38:42.595Z,99162.00
2018-11-14T06:42:45.103Z,99161.00
2018-11-14T06:46:47.626Z,99167.00
2018-11-14T06:50:50.039Z,99163.00
2018-11-14T06:54:52.417Z,99163.00
2018-11-14T06:58:54.907Z,99161.00
2018-11-14T07:02:57.820Z,99164.00
2018-11-14T07:07:00.447Z,99169.00
2018-11-14T07:11:03.100Z,99167.00
2018-11-14T07:15:08.103Z,99155.00
2018-11-14T07:19:10.783Z,99155.00
2018-11-14T07:23:13.157Z,99140.00
2018-11-14T07:27:15.578Z,99147.00
2018-11-14T07:31:18.350Z,99151.00
2018-11-14T07:35:20.802Z,99157.00
2018-11-14T07:39:23.153Z,99148.00
2018-11-14T07:43:25.506Z,99156.00
2018-11-14T07:47:28.032Z,99161.00
2018-11-14T07:51:30.471Z,99169.00
2018-11-14T07:55:32.799Z,99159.00
2018-11-14T07:59:35.165Z,99157.00
2018-11-14T08:03:37.551Z,99159.00
2018-11-14T08:07:39.915Z,99154.00
2018-11-14T08:11:42.328Z,99147.00
2018-11-14T08:15:44.691Z,99163.00
2018-11-14T08:19:47.046Z,99157.00
2018-11-14T08:23:49.426Z,99157.00
2018-11-14T08:27:51.911Z,99155.00
2018-11-14T08:31:54.278Z,99160.00
2018-11-14T08:35:56.608Z,99171.00
2018-11-14T08:39:58.923Z,99159.00
2018-11-14T08:44:01.361Z,99164.00
2018-11-14T08:48:04.365Z,99161.00
2018-11-14T08:52:06.772Z,99158.00
2018-11-14T08:56:09.113Z,99161.00
2018-11-14T09:00:14.492Z,99161.00
2018-11-14T09:04:16.831Z,99169.00
2018-11-14T09:08:19.323Z,99169.00
2018-11-14T09:12:21.688Z,99172.00
2018-11-14T09:16:24.118Z,99175.00
2018-11-14T09:20:27.560Z,99173.00
2018-11-14T09:24:30.422Z,99178.00
2018-11-14T09:28:32.807Z,99182.00
2018-11-14T09:32:35.235Z,99189.00
2018-11-14T09:36:37.611Z,99188.00
2018-11-14T09:40:40.115Z,99188.00
2018-11-14T09:44:42.472Z,99188.00
2018-11-14T09:48:44.825Z,99189.00
2018-11-14T09:52:49.590Z,99181.00
2018-11-14T09:56:51.996Z,99187.00
2018-11-14T10:00:54.340Z,99183.00
2018-11-14T10:04:56.746Z,99168.00
2018-11-14T10:08:59.198Z,99170.00
2018-11-14T10:13:01.527Z,99171.00
2018-11-14T10:17:03.925Z,99159.00
2018-11-14T10:21:06.494Z,99162.00
2018-11-14T10:25:09.381Z,99168.00
2018-11-14T10:29:11.777Z,99166.00
2018-11-14T10:33:14.200Z,99161.00
2018-11-14T10:37:16.635Z,99165.00
2018-11-14T10:41:18.985Z,99167.00
2018-11-14T10:45:22.522Z,99149.00
2018-11-14T10:49:24.955Z,99159.00
2018-11-14T10:53:27.363Z,99165.00
2018-11-14T10:57:29.792Z,99162.00
2018-11-14T11:01:37.920Z,99149.00
2018-11-14T11:05:45.967Z,99155.00
2018-11-14T11:09:54.038Z,99148.00
2018-11-14T11:14:11.129Z,99153.00
2018-11-14T11:18:15.000Z,99147.00
2018-11-14T11:22:17.338Z,99143.00
2018-11-14T11:26:19.713Z,99141.00
2018-11-14T11:30:22.160Z,99140.00
2018-11-14T11:34:24.583Z,99135.00
2018-11-14T11:38:27.040Z,99135.00
2018-11-14T11:42:29.486Z,99142.00
2018-11-14T11:46:31.852Z,99125.00
2018-11-14T11:50:34.218Z,99134.00
2018-11-14T11:54:36.525Z,99133.00
2018-11-14T11:58:38.961Z,99127.00
2018-11-14T12:02:42.311Z,99105.00
2018-11-14T12:06:44.694Z,99109.00
2018-11-14T12:10:47.196Z,99112.00
2018-11-14T12:14:49.490Z,99106.00
2018-11-14T12:18:51.888Z,99098.00
2018-11-14T12:22:54.318Z,99096.00
2018-11-14T12:26:56.723Z,99100.00
2018-11-14T12:30:59.505Z,99087.00
2018-11-14T12:35:02.032Z,99089.00
2018-11-14T12:39:06.607Z,99091.00
2018-11-14T12:43:08.992Z,99091.00
2018-11-14T12:47:11.344Z,99094.00
2018-11-14T12:51:13.745Z,99089.00
2018-11-14T12:55:17.396Z,99077.00
2018-11-14T12:59:20.424Z,99071.00
2018-11-14T13:03:22.798Z,99070.00
2018-11-14T13:07:25.210Z,99055.00
2018-11-14T13:11:27.588Z,99070.00
2018-11-14T13:15:29.942Z,99071.00
2018-11-14T13:19:32.373Z,99067.00
2018-11-14T13:23:34.744Z,99063.00
2018-11-14T13:27:37.169Z,99061.00
2018-11-14T13:31:39.541Z,99042.00
2018-11-14T13:35:44.074Z,99054.00
2018-11-14T13:39:46.887Z,99047.00
2018-11-14T13:43:49.285Z,99044.00
2018-11-14T13:47:51.645Z,99052.00
2018-11-14T13:51:55.010Z,99041.00
2018-11-14T13:55:57.459Z,99041.00
2018-11-14T13:59:59.779Z,99034.00
2018-11-14T14:04:02.488Z,99023.00
2018-11-14T14:08:05.304Z,99024.00
2018-11-14T14:12:07.714Z,99032.00
2018-11-14T14:16:10.213Z,99037.00
2018-11-14T14:20:13.463Z,99049.00
2018-11-14T14:24:15.904Z,99043.00
2018-11-14T14:28:18.249Z,99039.00
2018-11-14T14:32:20.842Z,99050.00
2018-11-14T14:36:23.469Z,99041.00
2018-11-14T14:40:25.897Z,99052.00
2018-11-14T14:44:28.267Z,99049.00
2018-11-14T14:48:30.755Z,99057.00
2018-11-14T14:52:33.159Z,99052.00
2018-11-14T14:56:35.530Z,99068.00
2018-11-14T15:00:37.989Z,99058.00
2018-11-14T15:04:40.931Z,99071.00
2018-11-14T15:08:43.300Z,99071.00
2018-11-14T15:12:45.779Z,99076.00
2018-11-14T15:16:48.136Z,99065.00
2018-11-14T15:20:50.673Z,99065.00
2018-11-14T15:24:53.149Z,99067.00
2018-11-14T15:28:55.605Z,99069.00
2018-11-14T15:32:58.174Z,99068.00
2018-11-14T15:37:00.631Z,99072.00
2018-11-14T15:41:03.159Z,99072.00
2018-11-14T15:45:07.390Z,99063.00
2018-11-14T15:49:09.931Z,99065.00
2018-11-14T15:53:12.387Z,99061.00
2018-11-14T15:57:16.303Z,99068.00
2018-11-14T16:01:18.736Z,99067.00
2018-11-14T16:05:22.288Z,99065.00
2018-11-14T16:09:24.631Z,99068.00
2018-11-14T16:13:27.012Z,99073.00
2018-11-14T16:17:29.507Z,99070.00
2018-11-14T16:21:31.995Z,99061.00
2018-11-14T16:25:34.469Z,99061.00
2018-11-14T16:29:36.889Z,99066.00
2018-11-14T16:33:39.307Z,99063.00
2018-11-14T16:37:42.213Z,99057.00
2018-11-14T16:41:44.585Z,99050.00
2018-11-14T16:45:47.030Z,99047.00
2018-11-14T16:49:49.548Z,99047.00
2018-11-14T16:53:52.153Z,99035.00
2018-11-14T16:57:55.532Z,99020.00
2018-11-14T17:01:57.934Z,99024.00
2018-11-14T17:06:00.372Z,99022.00
2018-11-14T17:10:02.886Z,99018.00
2018-11-14T17:14:05.444Z,99014.00
2018-11-14T17:18:07.914Z,99008.00
2018-11-14T17:22:10.347Z,99009.00
2018-11-14T17:26:12.796Z,99011.00
2018-11-14T17:30:25.212Z,99018.00
2018-11-14T17:34:27.708Z,98999.00
2018-11-14T17:38:30.107Z,99002.00
2018-11-14T17:42:32.802Z,98997.00
2018-11-14T17:46:34.893Z,99002.00
2018-11-14T17:50:37.368Z,99008.00
2018-11-14T17:54:39.717Z,99010.00
2018-11-14T17:58:42.162Z,99006.00
2018-11-14T18:02:44.940Z,99013.00
2018-11-14T18:06:47.322Z,99015.00
2018-11-14T18:10:49.847Z,99006.00
2018-11-14T18:14:52.471Z,99010.00
2018-11-14T18:18:54.996Z,99006.00
2018-11-14T18:22:57.815Z,99004.00
2018-11-14T18:27:00.259Z,99005.00
2018-11-14T18:31:02.756Z,99003.00
2018-11-14T18:35:08.735Z,99002.00
2018-11-14T18:39:12.832Z,98992.00
2018-11-14T18:43:15.296Z,99014.00
2018-11-14T18:47:17.753Z,99013.00
2018-11-14T18:51:20.747Z,99003.00
2018-11-14T18:55:24.656Z,98996.00
2018-11-14T18:59:28.045Z,98997.00
2018-11-14T19:03:30.516Z,98992.00
2018-11-14T19:07:33.128Z,98989.00
2018-11-14T19:11:35.697Z,99001.00
2018-11-14T19:15:38.181Z,98992.00
2018-11-14T19:19:40.772Z,98987.00
2018-11-14T19:23:43.351Z,98984.00
2018-11-14T19:27:47.583Z,98973.00
2018-11-14T19:31:50.126Z,98980.00
2018-11-14T19:35:52.747Z,98981.00
2018-11-14T19:39:55.364Z,98975.00
2018-11-14T19:43:58.076Z,98982.00
2018-11-14T19:48:01.271Z,98981.00
2018-11-14T19:52:03.867Z,98981.00
2018-11-14T19:56:06.570Z,98980.00
2018-11-14T20:00:13.222Z,98982.00
2018-11-14T20:04:15.726Z,98974.00
2018-11-14T20:08:18.620Z,98973.00
2018-11-14T20:12:27.805Z,98981.00
2018-11-14T20:16:30.416Z,98976.00
2018-11-14T20:20:34.390Z,98976.00
2018-11-14T20:24:36.872Z,98984.00
2018-11-14T20:28:39.496Z,98972.00
2018-11-14T20:32:42.221Z,98978.00
2018-11-14T20:36:44.764Z,98977.00
2018-11-14T20:40:47.445Z,98985.00
2018-11-14T20:44:50.080Z,98984.00
2018-11-14T20:48:52.510Z,98983.00
2018-11-14T20:52:58.591Z,98975.00
2018-11-14T20:57:00.981Z,98984.00
2018-11-14T21:01:04.259Z,98976.00
2018-11-14T21:05:08.266Z,98983.00
2018-11-14T21:09:11.972Z,98981.00
2018-11-14T21:13:14.340Z,98980.00
2018-11-14T21:17:16.711Z,98985.00
2018-11-14T21:21:19.408Z,98981.00
2018-11-14T21:25:22.811Z,98979.00
2018-11-14T21:29:25.462Z,98973.00
2018-11-14T21:33:27.910Z,98990.00
2018-11-14T21:37:31.700Z,98981.00
2018-11-14T21:41:34.276Z,98977.00
2018-11-14T21:45:38.291Z,98981.00
2018-11-14T21:49:41.907Z,98973.00
2018-11-14T21:53:44.303Z,98965.00
2018-11-14T21:57:46.749Z,98979.00
2018-11-14T22:01:49.162Z,98986.00
2018-11-14T22:05:51.595Z,98983.00
2018-11-14T22:09:53.958Z,98984.00
2018-11-14T22:13:56.374Z,98986.00
2018-11-14T22:17:58.871Z,98989.00
2018-11-14T22:22:01.666Z,98983.00
2018-11-14T22:26:04.113Z,98987.00
2018-11-14T22:30:09.290Z,98981.00
2018-11-14T22:34:11.816Z,98978.00
2018-11-14T22:38:14.403Z,98977.00
2018-11-14T22:42:16.820Z,98986.00
2018-11-14T22:46:19.195Z,98977.00
2018-11-14T22:50:22.841Z,98972.00
2018-11-14T22:54:25.567Z,98982.00
2018-11-14T22:58:27.883Z,98978.00
2018-11-14T23:02:30.524Z,98976.00
2018-11-14T23:06:32.904Z,98978.00
2018-11-14T23:10:35.288Z,98972.00
2018-11-14T23:14:37.711Z,98975.00
2018-11-14T23:18:40.113Z,98969.00
2018-11-14T23:22:43.236Z,98972.00
2018-11-14T23:26:45.605Z,98965.00
2018-11-14T23:30:47.928Z,98963.00
2018-11-14T23:34:55.989Z,98958.00
2018-11-14T23:38:58.267Z,98970.00
2018-11-14T23:43:00.970Z,98971.00
2018-11-14T23:47:03.298Z,98970.00
2018-11-14T23:51:06.193Z,98972.00
2018-11-14T23:55:08.759Z,98969.00
2018-11-14T23:59:11.086Z,98966.00
